Alexandria, Virginia
Current Conditions -  °F | °C
As of 12:52 AM on Thursday 23 Oct 2014 (Local Time) from KDCA Reporting Station
Broken Clouds Broken Clouds  
Wind Chill: 55°   Ceiling: 6500
Heat Index: 55°   Visibility: 10mi
Dew Point: 41°   Wind: 17mph
Humidity: 59%   Direction: 310°NW
Pressure: 29.92"   Gusts: 24mph
Location:  38.8°N, 77.04°W
Report Text: KDCA 230452Z 31015G21KT 10SM SCT035 BKN065 13/05 A2992 RMK AO2 SLP131 T01280050 401440128
Loading
Personal Weather Stations






























Interactive Weather Map
Tropical Storm Tracking
New forecast layout! Learn more

10-Day Weather Forecast

Advertisements
Track Severe Weather on mobile